sensor_id;sensor_type;location;lat;lon;timestamp;pressure;altitude;pressure_sealevel;temperature;humidity
43691;BME280;29293;52.190;21.226;2023-04-06T00:12:51;100961.84;;;-0.61;100.00
43691;BME280;29293;52.190;21.226;2023-04-06T00:27:58;100953.76;;;-0.60;100.00
43691;BME280;29293;52.190;21.226;2023-04-06T00:43:05;100939.96;;;-0.55;100.00
43691;BME280;29293;52.190;21.226;2023-04-06T00:58:12;100930.64;;;-0.53;100.00
43691;BME280;29293;52.190;21.226;2023-04-06T01:13:19;100918.45;;;-0.60;100.00
43691;BME280;29293;52.190;21.226;2023-04-06T01:28:26;100910.94;;;-0.69;100.00
43691;BME280;29293;52.190;21.226;2023-04-06T01:43:33;100899.14;;;-0.77;100.00
43691;BME280;29293;52.190;21.226;2023-04-06T01:58:40;100891.06;;;-0.84;100.00
43691;BME280;29293;52.190;21.226;2023-04-06T02:13:46;100884.97;;;-0.92;100.00
43691;BME280;29293;52.190;21.226;2023-04-06T02:28:53;100873.04;;;-1.04;100.00
43691;BME280;29293;52.190;21.226;2023-04-06T02:44:00;100860.92;;;-1.31;100.00
43691;BME280;29293;52.190;21.226;2023-04-06T02:59:08;100857.63;;;-1.54;100.00
43691;BME280;29293;52.190;21.226;2023-04-06T03:14:14;100862.45;;;-1.67;100.00
43691;BME280;29293;52.190;21.226;2023-04-06T03:29:22;100861.27;;;-1.68;100.00
43691;BME280;29293;52.190;21.226;2023-04-06T03:44:30;100865.69;;;-1.58;100.00
43691;BME280;29293;52.190;21.226;2023-04-06T03:59:37;100870.40;;;-1.38;100.00
43691;BME280;29293;52.190;21.226;2023-04-06T04:14:43;100856.64;;;-1.27;100.00
43691;BME280;29293;52.190;21.226;2023-04-06T04:29:50;100852.25;;;-1.19;100.00
43691;BME280;29293;52.190;21.226;2023-04-06T04:44:57;100843.98;;;-1.02;100.00
43691;BME280;29293;52.190;21.226;2023-04-06T05:00:05;100834.73;;;-0.81;100.00
43691;BME280;29293;52.190;21.226;2023-04-06T05:15:12;100832.91;;;-0.48;100.00
43691;BME280;29293;52.190;21.226;2023-04-06T05:30:19;100828.12;;;-0.06;100.00
43691;BME280;29293;52.190;21.226;2023-04-06T05:45:27;100818.19;;;0.32;100.00
43691;BME280;29293;52.190;21.226;2023-04-06T06:00:34;100810.10;;;0.55;100.00
43691;BME280;29293;52.190;21.226;2023-04-06T06:15:43;100808.19;;;0.79;100.00
43691;BME280;29293;52.190;21.226;2023-04-06T06:30:50;100799.16;;;1.04;100.00
43691;BME280;29293;52.190;21.226;2023-04-06T06:45:56;100790.11;;;1.27;100.00
43691;BME280;29293;52.190;21.226;2023-04-06T07:01:04;100781.27;;;1.76;100.00
43691;BME280;29293;52.190;21.226;2023-04-06T07:16:11;100784.40;;;1.77;100.00
43691;BME280;29293;52.190;21.226;2023-04-06T07:31:18;100778.11;;;1.70;100.00
43691;BME280;29293;52.190;21.226;2023-04-06T07:46:26;100779.06;;;1.65;100.00
43691;BME280;29293;52.190;21.226;2023-04-06T08:01:32;100771.13;;;1.86;100.00
43691;BME280;29293;52.190;21.226;2023-04-06T08:16:39;100766.54;;;2.08;100.00
43691;BME280;29293;52.190;21.226;2023-04-06T08:31:47;100759.29;;;1.92;100.00
43691;BME280;29293;52.190;21.226;2023-04-06T08:46:54;100754.45;;;1.96;100.00
43691;BME280;29293;52.190;21.226;2023-04-06T09:02:03;100747.05;;;1.83;100.00
43691;BME280;29293;52.190;21.226;2023-04-06T09:17:21;100726.44;;;1.82;100.00
43691;BME280;29293;52.190;21.226;2023-04-06T09:32:28;100708.67;;;1.81;100.00
43691;BME280;29293;52.190;21.226;2023-04-06T09:47:37;100692.23;;;1.64;100.00
43691;BME280;29293;52.190;21.226;2023-04-06T10:02:50;100682.23;;;1.37;100.00
43691;BME280;29293;52.190;21.226;2023-04-06T10:17:59;100678.14;;;1.27;100.00
43691;BME280;29293;52.190;21.226;2023-04-06T10:33:16;100670.38;;;1.26;100.00
43691;BME280;29293;52.190;21.226;2023-04-06T10:48:23;100655.45;;;1.23;100.00
43691;BME280;29293;52.190;21.226;2023-04-06T11:03:31;100640.83;;;1.25;100.00
43691;BME280;29293;52.190;21.226;2023-04-06T11:18:45;100626.08;;;1.34;100.00
43691;BME280;29293;52.190;21.226;2023-04-06T11:33:57;100616.19;;;1.48;100.00
43691;BME280;29293;52.190;21.226;2023-04-06T11:49:04;100602.61;;;1.65;100.00
43691;BME280;29293;52.190;21.226;2023-04-06T12:04:11;100574.73;;;1.78;100.00
43691;BME280;29293;52.190;21.226;2023-04-06T12:19:18;100555.59;;;1.95;100.00
43691;BME280;29293;52.190;21.226;2023-04-06T12:34:25;100563.34;;;2.15;100.00
43691;BME280;29293;52.190;21.226;2023-04-06T12:49:32;100557.36;;;2.09;100.00
43691;BME280;29293;52.190;21.226;2023-04-06T13:04:39;100546.39;;;1.96;100.00
43691;BME280;29293;52.190;21.226;2023-04-06T13:19:46;100527.73;;;1.86;100.00
43691;BME280;29293;52.190;21.226;2023-04-06T13:34:55;100507.55;;;1.79;100.00
43691;BME280;29293;52.190;21.226;2023-04-06T13:50:05;100509.48;;;1.74;100.00
43691;BME280;29293;52.190;21.226;2023-04-06T14:05:13;100487.88;;;1.75;100.00
43691;BME280;29293;52.190;21.226;2023-04-06T14:20:20;100475.11;;;2.04;100.00
43691;BME280;29293;52.190;21.226;2023-04-06T14:35:27;100482.27;;;2.08;100.00
43691;BME280;29293;52.190;21.226;2023-04-06T14:50:36;100472.20;;;2.05;100.00
43691;BME280;29293;52.190;21.226;2023-04-06T15:05:44;100460.23;;;2.05;100.00
43691;BME280;29293;52.190;21.226;2023-04-06T15:20:50;100457.65;;;1.99;100.00
43691;BME280;29293;52.190;21.226;2023-04-06T15:35:58;100443.77;;;1.83;100.00
43691;BME280;29293;52.190;21.226;2023-04-06T15:51:05;100434.27;;;1.75;100.00
43691;BME280;29293;52.190;21.226;2023-04-06T16:06:12;100440.48;;;1.74;100.00
43691;BME280;29293;52.190;21.226;2023-04-06T16:21:19;100428.36;;;1.76;100.00
43691;BME280;29293;52.190;21.226;2023-04-06T16:36:27;100420.35;;;1.78;100.00
43691;BME280;29293;52.190;21.226;2023-04-06T16:51:36;100425.98;;;1.77;100.00
43691;BME280;29293;52.190;21.226;2023-04-06T17:06:42;100432.67;;;1.73;100.00
43691;BME280;29293;52.190;21.226;2023-04-06T17:21:49;100427.33;;;1.71;100.00
43691;BME280;29293;52.190;21.226;2023-04-06T17:36:56;100432.27;;;1.74;100.00
43691;BME280;29293;52.190;21.226;2023-04-06T17:52:03;100433.80;;;1.77;100.00
43691;BME280;29293;52.190;21.226;2023-04-06T18:07:10;100427.88;;;1.82;100.00
43691;BME280;29293;52.190;21.226;2023-04-06T18:22:18;100428.05;;;1.89;100.00
43691;BME280;29293;52.190;21.226;2023-04-06T18:37:26;100423.66;;;1.97;100.00
43691;BME280;29293;52.190;21.226;2023-04-06T18:52:33;100416.64;;;2.03;100.00
43691;BME280;29293;52.190;21.226;2023-04-06T19:07:43;100404.59;;;2.07;100.00
43691;BME280;29293;52.190;21.226;2023-04-06T19:22:56;100405.08;;;2.09;100.00
43691;BME280;29293;52.190;21.226;2023-04-06T19:38:09;100393.04;;;2.10;100.00
43691;BME280;29293;52.190;21.226;2023-04-06T19:53:21;100391.08;;;2.10;100.00
43691;BME280;29293;52.190;21.226;2023-04-06T20:08:28;100383.65;;;2.14;100.00
43691;BME280;29293;52.190;21.226;2023-04-06T20:23:34;100378.15;;;2.18;100.00
43691;BME280;29293;52.190;21.226;2023-04-06T20:38:44;100368.98;;;2.21;100.00
43691;BME280;29293;52.190;21.226;2023-04-06T20:53:54;100363.92;;;2.24;100.00
43691;BME280;29293;52.190;21.226;2023-04-06T21:09:02;100370.66;;;2.29;100.00
43691;BME280;29293;52.190;21.226;2023-04-06T21:24:10;100358.30;;;2.38;100.00
43691;BME280;29293;52.190;21.226;2023-04-06T21:39:17;100343.39;;;2.43;100.00
43691;BME280;29293;52.190;21.226;2023-04-06T22:26:46;100302.99;;;2.89;100.00
43691;BME280;29293;52.190;21.226;2023-04-06T22:41:53;100281.30;;;2.94;100.00
43691;BME280;29293;52.190;21.226;2023-04-06T22:57:02;100274.15;;;2.97;100.00
43691;BME280;29293;52.190;21.226;2023-04-06T23:12:14;100267.73;;;2.98;100.00
43691;BME280;29293;52.190;21.226;2023-04-06T23:27:23;100260.09;;;3.06;100.00
43691;BME280;29293;52.190;21.226;2023-04-06T23:42:32;100241.34;;;3.17;100.00
43691;BME280;29293;52.190;21.226;2023-04-06T23:57:39;100224.95;;;3.24;100.00
